Time;durP1;ratioP1;P1;durP2;ratioP2;P2;SDS_P1;SDS_P2;PMS_P1;PMS_P2;Temp;Humidity;BMP_temperature;BMP_pressure;BME280_temperature;BME280_humidity;BME280_pressure;Samples;Min_cycle;Max_cycle;Signal;HPM_P1;HPM_P2
2021/03/14 00:43:38;;;;;;;6.18;1.70;;;5.70;99.90;;;;;;5590770;23;20053;-83
2021/03/14 00:46:41;;;;;;;;;;;5.60;99.90;;;;;;4921035;28;20035;-84
2021/03/14 00:50:29;;;;;;;3.22;1.73;;;5.70;99.90;;;;;;4991696;28;19914;-86
2021/03/14 00:54:11;;;;;;;3.25;1.73;;;5.70;99.90;;;;;;4959708;28;20036;-85
2021/03/14 01:12:53;;;;;;;5.43;1.65;;;5.80;99.90;;;;;;4075072;26;20054;-85
2021/03/14 03:20:10;;;;;;;5.38;2.40;;;5.70;99.90;;;;;;5332739;23;20534;-81
2021/03/14 03:22:38;;;;;;;5.75;2.58;;;5.70;99.90;;;;;;5001936;28;20061;-80
2021/03/14 03:25:06;;;;;;;5.15;2.70;;;5.80;99.90;;;;;;5029098;28;20029;-80
2021/03/14 03:27:36;;;;;;;3.92;2.92;;;5.70;99.90;;;;;;5015999;28;20053;-81
2021/03/14 03:30:05;;;;;;;5.05;2.75;;;5.70;99.90;;;;;;5014277;28;20489;-80
2021/03/14 03:32:33;;;;;;;3.85;2.78;;;5.70;99.90;;;;;;5013462;28;20025;-80
2021/03/14 03:34:59;;;;;;;5.90;2.70;;;5.70;99.90;;;;;;4994846;28;20041;-81
2021/03/14 03:37:28;;;;;;;3.35;2.45;;;5.70;99.90;;;;;;4995749;28;20022;-81
2021/03/14 03:40:14;;;;;;;3.05;2.70;;;5.60;99.90;;;;;;5021338;28;20053;-82
2021/03/14 03:43:08;;;;;;;6.72;2.58;;;5.50;99.90;;;;;;4995280;28;20041;-81
2021/03/14 03:45:40;;;;;;;5.43;2.88;;;5.40;99.90;;;;;;5004943;28;20030;-81
2021/03/14 03:48:20;;;;;;;3.20;2.25;;;5.40;99.90;;;;;;5027847;28;20034;-82
2021/03/14 03:50:48;;;;;;;4.07;2.47;;;5.40;99.90;;;;;;5027619;28;20093;-81
2021/03/14 03:53:14;;;;;;;4.28;2.78;;;;;;;;;;5001249;28;20046;-81
2021/03/14 03:55:44;;;;;;;2.58;2.00;;;5.40;99.90;;;;;;5014877;28;20144;-81
2021/03/14 03:58:13;;;;;;;2.50;2.03;;;5.30;99.90;;;;;;5015720;28;20069;-80
2021/03/14 04:00:41;;;;;;;2.80;1.80;;;5.30;99.90;;;;;;5020293;28;20049;-82
2021/03/14 04:03:08;;;;;;;2.25;1.60;;;;;;;;;;4992564;28;20030;-81
2021/03/14 04:05:34;;;;;;;4.78;2.00;;;;;;;;;;5026361;28;20086;-81
2021/03/14 04:08:02;;;;;;;1.83;1.50;;;5.20;99.90;;;;;;5030728;28;20037;-80
2021/03/14 04:10:34;;;;;;;3.67;1.60;;;5.30;99.90;;;;;;5017682;28;20026;-80
2021/03/14 04:13:10;;;;;;;1.85;1.40;;;5.20;99.90;;;;;;4999491;28;20057;-83
2021/03/14 04:15:41;;;;;;;3.13;1.52;;;5.20;99.90;;;;;;4998301;28;20022;-82
2021/03/14 04:18:09;;;;;;;2.07;1.30;;;5.10;99.90;;;;;;5008222;28;20053;-83
2021/03/14 04:21:27;;;;;;;2.00;1.45;;;5.10;99.90;;;;;;5003768;28;20105;-82
2021/03/14 04:24:21;;;;;;;1.70;1.50;;;5.20;99.90;;;;;;5014073;28;20027;-83
2021/03/14 04:27:09;;;;;;;1.80;1.10;;;5.20;99.90;;;;;;5006164;28;20033;-84
2021/03/14 04:30:11;;;;;;;2.38;1.00;;;5.10;99.90;;;;;;5013816;28;20034;-82
2021/03/14 04:32:51;;;;;;;2.00;0.90;;;5.20;99.90;;;;;;5014077;28;20071;-82
2021/03/14 04:35:30;;;;;;;1.80;1.20;;;5.10;99.90;;;;;;5025046;28;20081;-83
2021/03/14 04:38:03;;;;;;;2.10;0.93;;;;;;;;;;5028912;28;20034;-82
2021/03/14 04:40:45;;;;;;;1.00;0.80;;;5.10;99.90;;;;;;5014286;28;19998;-83
2021/03/14 04:43:19;;;;;;;;;;;5.00;99.90;;;;;;5004028;28;20041;-82
2021/03/14 04:45:47;;;;;;;2.33;0.82;;;5.00;99.90;;;;;;5031262;28;20000;-83
2021/03/14 04:48:27;;;;;;;0.95;0.88;;;5.00;99.90;;;;;;5012759;28;20026;-81
2021/03/14 04:50:54;;;;;;;1.95;0.80;;;4.90;99.90;;;;;;5019440;28;20010;-82
2021/03/14 04:53:22;;;;;;;1.00;0.90;;;4.90;99.90;;;;;;5004544;28;20038;-82
2021/03/14 04:55:53;;;;;;;2.38;1.95;;;6.00;99.90;;;;;;5012737;28;20035;-83
2021/03/14 04:58:24;;;;;;;0.95;0.70;;;;;;;;;;5020690;28;20123;-81
2021/03/14 05:00:52;;;;;;;1.75;1.00;;;;;;;;;;5025420;28;20026;-82
2021/03/14 05:03:27;;;;;;;1.15;0.90;;;4.80;99.90;;;;;;5014896;28;20038;-82
2021/03/14 05:05:54;;;;;;;0.70;0.70;;;;;;;;;;5023415;28;20039;-81
2021/03/14 05:08:36;;;;;;;1.88;0.77;;;4.80;99.90;;;;;;5022477;28;20069;-82
2021/03/14 05:11:44;;;;;;;0.85;0.70;;;4.80;99.90;;;;;;4979447;28;20062;-79
2021/03/14 05:14:36;;;;;;;2.10;1.30;;;4.90;99.90;;;;;;4985387;28;20038;-81
2021/03/14 05:17:16;;;;;;;1.77;1.20;;;4.80;99.90;;;;;;5010201;28;20026;-82
2021/03/14 05:19:46;;;;;;;1.10;0.93;;;4.80;99.90;;;;;;4984134;28;20042;-81
2021/03/14 05:22:13;;;;;;;2.00;1.13;;;4.70;99.90;;;;;;4999221;28;20031;-81
2021/03/14 05:24:44;;;;;;;1.80;1.00;;;4.80;99.90;;;;;;5005131;28;20031;-80
2021/03/14 05:27:12;;;;;;;2.35;1.15;;;4.70;99.90;;;;;;4988026;28;20045;-82
2021/03/14 05:29:55;;;;;;;;;;;;;;;;;;;;;
2021/03/14 05:32:25;;;;;;;1.60;1.15;;;4.60;99.90;;;;;;5018398;28;20061;-82
2021/03/14 05:35:02;;;;;;;1.65;1.00;;;4.70;99.90;;;;;;5025706;28;20014;-83
2021/03/14 05:37:31;;;;;;;1.17;1.08;;;;;;;;;;5032293;28;20032;-82
2021/03/14 05:40:07;;;;;;;0.88;0.65;;;;;;;;;;5024507;28;20022;-82
2021/03/14 05:42:37;;;;;;;1.35;1.00;;;4.70;99.90;;;;;;5020646;28;20041;-83
2021/03/14 05:45:22;;;;;;;2.92;0.93;;;4.70;99.90;;;;;;5004248;28;20053;-82
2021/03/14 05:47:49;;;;;;;1.65;1.05;;;4.70;99.90;;;;;;4993756;28;20037;-82
2021/03/14 05:50:25;;;;;;;1.10;1.00;;;4.70;99.90;;;;;;5007069;28;20109;-82
2021/03/14 05:52:53;;;;;;;2.08;0.88;;;4.60;99.90;;;;;;5016924;28;20025;-81
2021/03/14 05:55:21;;;;;;;1.98;1.00;;;4.60;99.90;;;;;;5001567;28;20483;-81
2021/03/14 05:57:53;;;;;;;1.50;1.08;;;4.60;99.90;;;;;;5028924;28;20037;-83
2021/03/14 06:00:27;;;;;;;0.52;0.50;;;4.60;99.90;;;;;;5022895;28;20042;-80
2021/03/14 06:03:01;;;;;;;1.30;0.98;;;4.60;99.90;;;;;;5006742;28;20040;-82
2021/03/14 06:05:32;;;;;;;1.02;0.88;;;4.70;99.90;;;;;;5019232;28;20120;-82
2021/03/14 06:08:01;;;;;;;1.77;0.95;;;4.70;99.90;;;;;;5015319;28;20049;-82
2021/03/14 06:10:26;;;;;;;1.83;1.10;;;4.70;99.90;;;;;;5031834;28;20053;-83
2021/03/14 06:12:54;;;;;;;2.17;1.23;;;4.60;99.90;;;;;;5023269;28;20037;-82
2021/03/14 06:15:20;;;;;;;0.90;0.80;;;4.70;99.90;;;;;;5002852;28;20031;-81
2021/03/14 06:17:47;;;;;;;1.45;1.17;;;4.70;99.90;;;;;;5001140;28;20026;-82
2021/03/14 06:20:36;;;;;;;1.73;1.30;;;4.70;99.90;;;;;;4987454;28;20054;-80
2021/03/14 06:23:19;;;;;;;2.70;1.38;;;4.70;99.90;;;;;;5026722;28;20019;-82
2021/03/14 06:25:52;;;;;;;1.38;1.25;;;4.70;99.90;;;;;;5031844;28;20026;-81
2021/03/14 06:28:34;;;;;;;3.13;1.70;;;4.70;99.90;;;;;;5038465;28;20006;-82
2021/03/14 06:31:22;;;;;;;1.60;1.23;;;4.80;99.90;;;;;;5003959;28;20011;-83
2021/03/14 06:34:23;;;;;;;1.50;1.40;;;4.80;99.90;;;;;;5007107;28;20045;-81
2021/03/14 06:36:55;;;;;;;1.50;1.30;;;4.80;99.90;;;;;;5030486;28;20019;-82
2021/03/14 06:39:51;;;;;;;;;;;;;;;;;;;;;
2021/03/14 06:42:41;;;;;;;2.50;1.75;;;5.10;99.90;;;;;;5015551;28;20054;-81
2021/03/14 06:45:15;;;;;;;3.30;1.88;;;4.90;99.90;;;;;;5015125;28;20021;-81
2021/03/14 06:47:44;;;;;;;2.10;1.55;;;4.90;99.90;;;;;;5005717;28;20116;-81
2021/03/14 06:50:30;;;;;;;2.60;1.70;;;4.90;99.90;;;;;;5005020;28;20086;-82
2021/03/14 06:53:18;;;;;;;1.65;1.30;;;4.90;99.90;;;;;;5027112;28;20026;-80
2021/03/14 06:55:46;;;;;;;2.63;1.60;;;5.00;99.90;;;;;;5017809;28;20030;-80
2021/03/14 08:15:31;;;;;;;4.38;2.15;;;5.30;99.90;;;;;;5675943;23;20050;-81
2021/03/14 08:18:01;;;;;;;3.45;1.60;;;5.30;99.90;;;;;;5004894;28;20086;-82
2021/03/14 08:20:40;;;;;;;3.10;1.70;;;6.60;99.90;;;;;;4995446;28;20050;-80
2021/03/14 08:23:39;;;;;;;2.90;2.00;;;8.80;99.90;;;;;;5009199;28;20039;-81
2021/03/14 08:26:27;;;;;;;3.38;2.53;;;5.40;99.90;;;;;;4993657;28;20032;-81
2021/03/14 08:29:03;;;;;;;2.88;1.92;;;5.40;99.90;;;;;;5005420;28;20049;-81
2021/03/14 08:31:56;;;;;;;2.38;1.65;;;5.40;99.90;;;;;;4999000;28;20022;-80
2021/03/14 08:34:30;;;;;;;3.80;1.80;;;5.50;99.90;;;;;;4997647;28;20039;-80
2021/03/14 08:37:16;;;;;;;3.78;2.08;;;5.50;99.90;;;;;;5003029;28;20047;-79
2021/03/14 08:39:43;;;;;;;4.07;1.92;;;5.70;99.90;;;;;;4988694;28;20058;-80
2021/03/14 08:42:09;;;;;;;2.83;1.90;;;;;;;;;;5000729;28;20031;-80
2021/03/14 08:44:49;;;;;;;4.95;2.17;;;5.80;99.90;;;;;;5002895;28;20023;-82
2021/03/14 08:47:23;;;;;;;3.00;1.88;;;5.80;99.90;;;;;;5008410;28;20049;-81
2021/03/14 08:50:02;;;;;;;2.15;1.42;;;4.40;99.90;;;;;;5005370;28;20022;-81
2021/03/14 08:52:34;;;;;;;2.97;1.80;;;5.80;99.90;;;;;;5004386;28;20038;-80
2021/03/14 08:55:00;;;;;;;4.10;2.20;;;5.80;99.90;;;;;;5012227;28;20019;-80
2021/03/14 08:57:26;;;;;;;4.65;1.77;;;;;;;;;;5003682;28;20037;-82
2021/03/14 08:59:57;;;;;;;7.53;2.30;;;5.90;99.90;;;;;;5004196;28;20045;-80
2021/03/14 09:02:23;;;;;;;3.05;1.98;;;;;;;;;;4986066;28;20034;-81
2021/03/14 09:05:09;;;;;;;4.60;3.58;;;6.00;99.90;;;;;;5000901;28;20076;-80
2021/03/14 09:07:44;;;;;;;6.47;2.63;;;5.70;99.90;;;;;;4998548;28;20478;-81
2021/03/14 09:10:21;;;;;;;4.82;2.17;;;5.60;99.90;;;;;;4983237;28;20029;-79
2021/03/14 09:12:58;;;;;;;4.93;2.28;;;5.90;99.90;;;;;;4998153;28;20026;-80
2021/03/14 09:15:24;;;;;;;4.00;2.22;;;;;;;;;;5001720;28;20046;-80
2021/03/14 09:17:51;;;;;;;3.53;1.98;;;;;;;;;;4988155;28;20050;-80
2021/03/14 09:20:19;;;;;;;4.95;2.60;;;5.40;99.90;;;;;;4990354;28;20107;-81
2021/03/14 09:22:48;;;;;;;4.88;1.73;;;4.90;99.90;;;;;;5006291;28;20030;-82
2021/03/14 09:25:26;;;;;;;3.22;1.75;;;5.00;99.90;;;;;;5008032;28;20051;-80
2021/03/14 09:27:55;;;;;;;3.28;1.90;;;4.80;99.90;;;;;;4990465;28;20034;-83
2021/03/14 09:30:25;;;;;;;4.65;1.80;;;5.50;99.90;;;;;;5007483;28;20022;-82
2021/03/14 09:32:53;;;;;;;3.92;1.67;;;4.60;99.90;;;;;;5004947;28;20045;-81
2021/03/14 09:35:31;;;;;;;1.63;1.40;;;4.10;99.90;;;;;;5010380;28;20070;-82
2021/03/14 09:38:05;;;;;;;3.53;1.90;;;4.70;99.90;;;;;;5004342;28;20050;-83
2021/03/14 09:40:46;;;;;;;4.97;3.17;;;4.80;99.90;;;;;;4987857;28;20030;-82
2021/03/14 09:43:22;;;;;;;3.35;1.40;;;4.80;99.90;;;;;;5011178;28;20015;-80
2021/03/14 09:45:51;;;;;;;2.78;1.67;;;4.90;99.90;;;;;;5001087;28;20041;-79
2021/03/14 09:48:24;;;;;;;3.88;1.77;;;4.60;99.90;;;;;;4996785;28;20077;-80
2021/03/14 09:51:09;;;;;;;4.60;2.13;;;4.90;99.90;;;;;;4999467;28;20038;-80
2021/03/14 09:53:37;;;;;;;3.50;2.83;;;5.10;99.90;;;;;;4999597;28;20055;-80
2021/03/14 09:56:07;;;;;;;4.78;2.10;;;5.20;99.90;;;;;;5009589;28;20033;-81
2021/03/14 09:58:33;;;;;;;7.15;2.28;;;4.50;99.90;;;;;;5010880;28;20040;-79
2021/03/14 10:01:00;;;;;;;5.22;2.63;;;5.60;99.90;;;;;;5012254;28;20033;-80
2021/03/14 10:03:31;;;;;;;5.30;2.45;;;5.50;99.90;;;;;;5013660;28;20045;-79
2021/03/14 10:06:04;;;;;;;4.87;2.37;;;5.70;99.90;;;;;;5008410;28;20118;-81
2021/03/14 10:08:42;;;;;;;6.07;2.47;;;5.70;99.90;;;;;;5011530;28;20308;-82
2021/03/14 10:11:17;;;;;;;4.65;2.55;;;6.00;99.90;;;;;;5013244;28;20030;-81
2021/03/14 10:13:52;;;;;;;5.35;2.38;;;6.00;99.90;;;;;;4993505;28;20019;-81
2021/03/14 10:16:31;;;;;;;5.60;3.20;;;6.00;99.90;;;;;;4991519;28;20051;-80
2021/03/14 10:19:03;;;;;;;5.43;3.05;;;6.00;99.90;;;;;;4958013;28;20091;-84
2021/03/14 10:21:37;;;;;;;3.70;2.45;;;;;;;;;;4973617;28;20031;-82
2021/03/14 10:24:31;;;;;;;5.88;3.55;;;6.00;99.90;;;;;;4977894;28;20022;-82
2021/03/14 10:27:06;;;;;;;5.15;2.92;;;6.00;99.90;;;;;;4988141;28;20045;-82
2021/03/14 10:29:44;;;;;;;3.85;2.15;;;6.50;99.90;;;;;;4990935;28;20030;-82
2021/03/14 10:32:21;;;;;;;6.95;2.83;;;6.40;99.90;;;;;;4971302;28;20042;-82
2021/03/14 10:35:16;;;;;;;6.28;3.05;;;6.50;99.90;;;;;;4974309;28;20038;-81
2021/03/14 10:38:21;;;;;;;5.03;2.90;;;6.50;99.90;;;;;;4992843;28;20011;-82
2021/03/14 10:40:50;;;;;;;5.97;2.85;;;6.50;99.90;;;;;;4985131;28;21568;-80
2021/03/14 10:43:29;;;;;;;5.50;3.90;;;6.40;99.90;;;;;;4987985;28;20034;-80
2021/03/14 10:45:58;;;;;;;2.72;2.22;;;6.50;99.90;;;;;;4983574;28;20038;-79
2021/03/14 10:48:42;;;;;;;7.15;2.72;;;6.40;99.90;;;;;;4982867;28;20026;-81
2021/03/14 10:51:32;;;;;;;11.82;5.07;;;6.50;99.90;;;;;;4965478;28;20022;-82
2021/03/14 10:54:21;;;;;;;9.30;3.00;;;6.40;99.90;;;;;;4981828;28;20035;-79
2021/03/14 10:56:54;;;;;;;5.13;2.85;;;6.50;99.90;;;;;;4970082;28;20039;-80
2021/03/14 10:59:37;;;;;;;4.95;2.58;;;6.50;99.90;;;;;;4959203;28;20111;-80
2021/03/14 11:02:25;;;;;;;4.65;2.80;;;6.60;99.90;;;;;;4978434;28;20130;-81
2021/03/14 11:05:02;;;;;;;6.32;2.83;;;6.70;99.90;;;;;;4958549;28;20368;-80
2021/03/14 11:07:43;;;;;;;4.05;2.67;;;6.70;99.90;;;;;;4961901;28;20053;-77
2021/03/14 11:10:24;;;;;;;7.75;3.00;;;6.80;99.90;;;;;;4977839;28;20003;-79
2021/03/14 11:12:51;;;;;;;5.93;2.90;;;;;;;;;;4981842;28;20447;-78
2021/03/14 11:15:30;;;;;;;6.72;3.05;;;7.00;99.90;;;;;;4986044;28;20039;-79
2021/03/14 11:18:00;;;;;;;7.50;3.50;;;6.80;99.90;;;;;;4985436;28;20622;-79
2021/03/14 11:20:29;;;;;;;5.57;2.42;;;7.10;99.90;;;;;;4974290;28;20027;-79
2021/03/14 11:22:57;;;;;;;7.45;3.53;;;4.60;99.90;;;;;;4959499;28;20034;-78
2021/03/14 11:25:25;;;;;;;8.48;2.72;;;7.00;99.90;;;;;;4957076;28;20035;-81
2021/03/14 11:36:55;;;;;;;5.47;3.53;;;7.10;99.90;;;;;;4945111;28;20090;-79
2021/03/14 11:39:21;;;;;;;6.03;2.80;;;7.30;99.90;;;;;;4943426;29;20909;-79
2021/03/14 11:41:47;;;;;;;5.65;2.90;;;7.60;99.90;;;;;;4943589;28;20122;-77
2021/03/14 11:44:13;;;;;;;4.75;3.05;;;7.90;99.90;;;;;;4943391;28;20027;-77
2021/03/14 11:46:39;;;;;;;6.82;2.92;;;8.00;99.90;;;;;;4940226;28;20398;-79
2021/03/14 11:49:05;;;;;;;5.72;3.45;;;8.40;99.90;;;;;;4947694;28;20094;-80
2021/03/14 11:51:31;;;;;;;7.18;3.15;;;8.40;99.90;;;;;;4928163;28;20035;-77
2021/03/14 11:53:58;;;;;;;7.72;3.55;;;8.60;99.90;;;;;;4927606;29;20097;-77
2021/03/14 11:56:25;;;;;;;6.82;3.65;;;8.50;99.90;;;;;;4948778;29;20055;-81
2021/03/14 11:58:51;;;;;;;5.18;3.60;;;8.80;99.90;;;;;;4946502;28;20032;-80
2021/03/14 12:01:17;;;;;;;5.97;2.42;;;9.00;99.90;;;;;;4943295;29;20031;-81
2021/03/14 12:03:43;;;;;;;7.97;3.50;;;9.50;99.90;;;;;;4955393;28;20035;-80
2021/03/14 12:06:10;;;;;;;8.75;3.38;;;9.90;99.90;;;;;;4941558;28;20080;-80
2021/03/14 12:08:37;;;;;;;8.38;2.78;;;10.70;99.90;;;;;;4926678;29;20038;-77
2021/03/14 12:11:06;;;;;;;4.68;3.20;;;12.00;99.90;;;;;;4942146;28;20090;-79
2021/03/14 12:13:36;;;;;;;4.65;2.53;;;13.40;93.40;;;;;;4940934;29;20027;-77
2021/03/14 12:16:10;;;;;;;7.53;3.83;;;12.50;94.90;;;;;;4940544;29;20036;-79
2021/03/14 12:18:35;;;;;;;5.15;3.13;;;11.90;96.80;;;;;;4940842;29;20150;-77
2021/03/14 12:21:01;;;;;;;4.43;2.88;;;11.10;98.60;;;;;;4943776;28;20155;-77
2021/03/14 12:23:27;;;;;;;7.45;3.30;;;10.80;99.90;;;;;;4926235;29;20086;-77
2021/03/14 12:25:52;;;;;;;7.97;4.10;;;9.90;99.90;;;;;;4924252;29;20407;-79
2021/03/14 12:28:18;;;;;;;11.40;3.03;;;9.60;99.90;;;;;;4942340;28;20515;-81
2021/03/14 12:30:44;;;;;;;8.65;4.13;;;9.50;99.90;;;;;;4946178;29;20031;-78
2021/03/14 12:33:10;;;;;;;8.82;3.72;;;10.20;99.90;;;;;;4942976;28;20082;-80
2021/03/14 12:35:36;;;;;;;5.25;2.40;;;9.40;99.90;;;;;;4925895;28;20042;-82
2021/03/14 12:38:02;;;;;;;5.45;2.85;;;9.40;99.90;;;;;;4948044;29;20386;-78
2021/03/14 12:40:28;;;;;;;4.25;2.40;;;9.50;99.90;;;;;;4944989;29;20062;-80
2021/03/14 12:42:54;;;;;;;6.95;2.28;;;10.10;99.90;;;;;;4944701;28;20035;-80
2021/03/14 12:45:22;;;;;;;4.10;1.98;;;11.10;99.90;;;;;;4937477;28;20031;-81
2021/03/14 12:47:51;;;;;;;5.18;1.83;;;11.40;99.90;;;;;;4940331;28;20039;-80
2021/03/14 12:50:17;;;;;;;4.80;1.80;;;11.10;99.90;;;;;;4942242;29;20039;-78
2021/03/14 12:52:43;;;;;;;3.72;1.85;;;10.40;99.90;;;;;;4935255;29;20098;-77
2021/03/14 12:55:11;;;;;;;4.63;2.40;;;10.80;99.90;;;;;;4938358;29;20162;-79
2021/03/14 12:57:40;;;;;;;4.72;2.45;;;11.50;99.40;;;;;;4942982;28;20049;-77
2021/03/14 13:00:08;;;;;;;5.20;2.47;;;11.80;97.10;;;;;;4941093;28;20035;-78
2021/03/14 13:02:34;;;;;;;3.20;1.90;;;11.10;98.20;;;;;;4938402;28;20376;-79
2021/03/14 13:05:00;;;;;;;5.65;2.60;;;10.40;99.90;;;;;;4940429;28;20115;-78
2021/03/14 13:07:27;;;;;;;6.60;2.63;;;10.10;99.90;;;;;;4937383;28;20050;-77
2021/03/14 13:09:52;;;;;;;4.97;2.53;;;9.40;99.90;;;;;;4950471;28;20508;-79
2021/03/14 13:12:18;;;;;;;6.18;2.63;;;9.00;99.90;;;;;;4942477;29;20028;-79
2021/03/14 13:14:44;;;;;;;6.53;3.40;;;8.80;99.90;;;;;;4938480;29;20047;-77
2021/03/14 13:17:09;;;;;;;4.90;2.65;;;8.80;99.90;;;;;;4942075;29;20494;-77
2021/03/14 13:19:35;;;;;;;5.43;2.05;;;8.50;99.90;;;;;;4944769;28;20042;-77
2021/03/14 13:22:01;;;;;;;3.83;2.22;;;8.10;99.90;;;;;;4956454;28;20105;-79
2021/03/14 13:24:26;;;;;;;3.17;1.80;;;7.70;99.90;;;;;;4922978;29;20034;-76
2021/03/14 13:26:52;;;;;;;5.20;2.35;;;7.80;99.90;;;;;;4942113;28;20035;-77
2021/03/14 13:29:18;;;;;;;5.03;2.65;;;8.50;99.90;;;;;;4942148;29;20031;-79
2021/03/14 13:31:43;;;;;;;4.85;2.13;;;9.50;99.90;;;;;;4938177;28;20032;-82
2021/03/14 13:34:09;;;;;;;4.43;2.15;;;10.00;99.90;;;;;;4943997;28;20138;-75
2021/03/14 13:36:35;;;;;;;3.83;2.05;;;10.00;99.90;;;;;;4942670;28;20358;-79
2021/03/14 13:39:00;;;;;;;4.07;1.92;;;10.10;99.90;;;;;;4923680;29;20039;-79
2021/03/14 13:41:26;;;;;;;3.42;2.10;;;9.40;99.90;;;;;;4941179;28;20047;-76
2021/03/14 13:43:52;;;;;;;4.60;2.58;;;9.00;99.90;;;;;;4942796;28;20085;-75
2021/03/14 13:46:17;;;;;;;3.60;2.28;;;8.60;99.90;;;;;;4925122;28;20170;-79
2021/03/14 13:48:44;;;;;;;4.55;2.28;;;8.30;99.90;;;;;;4943101;29;20249;-74
2021/03/14 13:51:17;;;;;;;4.72;2.72;;;8.00;99.90;;;;;;4946122;28;20120;-77
2021/03/14 13:53:43;;;;;;;4.53;2.13;;;7.90;99.90;;;;;;4942627;28;20027;-78
2021/03/14 13:56:09;;;;;;;5.63;2.15;;;;;;;;;;4943682;28;20404;-77
2021/03/14 13:58:36;;;;;;;8.65;4.90;;;7.90;99.90;;;;;;4943664;28;20040;-77
2021/03/14 14:01:06;;;;;;;4.63;2.08;;;7.80;99.90;;;;;;4942712;28;20139;-76
2021/03/14 14:03:34;;;;;;;3.92;1.85;;;7.80;99.90;;;;;;4929179;29;21500;-76
2021/03/14 14:06:00;;;;;;;4.63;2.17;;;7.80;99.90;;;;;;4924768;29;20043;-76
2021/03/14 14:08:26;;;;;;;4.75;2.83;;;8.00;99.90;;;;;;4947099;28;20039;-81
2021/03/14 14:10:52;;;;;;;5.18;2.20;;;8.00;99.90;;;;;;4946579;28;20038;-77
2021/03/14 14:13:17;;;;;;;4.43;2.20;;;;;;;;;;4948390;28;20034;-76
2021/03/14 14:15:43;;;;;;;6.18;2.53;;;7.90;99.90;;;;;;4948642;28;20028;-77
2021/03/14 14:18:09;;;;;;;4.47;2.42;;;8.00;99.90;;;;;;4947482;28;20083;-76
2021/03/14 14:20:41;;;;;;;4.07;2.70;;;8.10;99.90;;;;;;4950761;28;20364;-74
2021/03/14 14:23:07;;;;;;;3.47;2.35;;;8.40;99.90;;;;;;4928754;29;20039;-76
2021/03/14 14:25:33;;;;;;;4.03;2.45;;;8.60;99.90;;;;;;4942512;29;20038;-77
2021/03/14 14:28:00;;;;;;;5.85;3.08;;;9.00;99.90;;;;;;4945881;29;20039;-73
2021/03/14 14:30:27;;;;;;;3.70;1.95;;;9.10;99.90;;;;;;4946787;28;20036;-78
2021/03/14 14:32:53;;;;;;;5.93;2.45;;;9.50;99.90;;;;;;4926130;29;20047;-78
2021/03/14 14:35:19;;;;;;;7.63;3.85;;;9.70;99.90;;;;;;4943398;29;20032;-76
2021/03/14 14:37:45;;;;;;;5.40;2.78;;;9.50;99.90;;;;;;4932079;28;20110;-76
2021/03/14 14:40:11;;;;;;;5.82;2.38;;;9.30;99.90;;;;;;4945197;28;20043;-75
2021/03/14 14:42:37;;;;;;;5.22;2.42;;;9.60;99.90;;;;;;4947959;29;20050;-76
2021/03/14 14:45:05;;;;;;;6.93;3.40;;;10.00;99.90;;;;;;4946479;28;20036;-79
2021/03/14 14:47:32;;;;;;;5.03;2.33;;;10.00;99.90;;;;;;4951503;28;20050;-76
2021/03/14 14:49:58;;;;;;;8.20;3.10;;;10.00;99.90;;;;;;4946854;28;20133;-77
2021/03/14 14:52:23;;;;;;;5.72;2.42;;;9.90;99.90;;;;;;4945834;28;20050;-78
2021/03/14 14:54:49;;;;;;;6.43;3.22;;;9.90;99.90;;;;;;4942309;28;20042;-80
2021/03/14 14:57:14;;;;;;;5.57;3.17;;;9.70;99.90;;;;;;4944589;28;20148;-78
2021/03/14 14:59:40;;;;;;;4.43;2.13;;;9.70;99.90;;;;;;4942643;28;20467;-77
2021/03/14 15:02:06;;;;;;;5.72;3.45;;;9.50;99.90;;;;;;4941593;28;20035;-77
2021/03/14 15:04:32;;;;;;;5.53;2.17;;;9.30;99.90;;;;;;4939619;28;20031;-77
2021/03/14 15:06:58;;;;;;;5.78;2.67;;;9.20;99.90;;;;;;4943126;28;20086;-77
2021/03/14 15:09:23;;;;;;;6.90;2.45;;;9.00;99.90;;;;;;4942428;29;20506;-78
2021/03/14 15:11:49;;;;;;;3.22;2.15;;;9.00;99.90;;;;;;4942843;29;20571;-77
2021/03/14 15:14:15;;;;;;;4.85;2.60;;;;;;;;;;4942518;29;20027;-80
2021/03/14 15:16:41;;;;;;;3.97;1.90;;;9.00;99.90;;;;;;4941088;29;20023;-80
2021/03/14 15:19:07;;;;;;;2.53;1.63;;;9.00;99.90;;;;;;4944527;29;20129;-77
2021/03/14 15:21:36;;;;;;;4.70;1.90;;;8.90;99.90;;;;;;4941221;29;20039;-78
2021/03/14 15:24:03;;;;;;;4.93;1.98;;;8.90;99.90;;;;;;4929113;29;20111;-77
2021/03/14 15:26:29;;;;;;;6.55;3.45;;;8.90;99.90;;;;;;4946007;28;20285;-79
2021/03/14 15:28:54;;;;;;;4.88;2.05;;;8.80;99.90;;;;;;4928028;29;20027;-77
2021/03/14 15:31:20;;;;;;;78.32;47.55;;;8.50;99.90;;;;;;4947371;28;20101;-78
2021/03/14 15:33:46;;;;;;;29.55;20.48;;;8.50;99.90;;;;;;4944339;29;20063;-77
2021/03/14 15:36:13;;;;;;;120.57;85.80;;;8.30;99.90;;;;;;4943549;28;20589;-81
2021/03/14 15:38:39;;;;;;;7.80;4.25;;;8.30;99.90;;;;;;4936756;28;20197;-77
2021/03/14 15:41:05;;;;;;;4.93;1.40;;;8.20;99.90;;;;;;4944238;29;20035;-78
2021/03/14 15:43:33;;;;;;;3.22;1.52;;;8.10;99.90;;;;;;4941857;29;20782;-77
2021/03/14 15:45:59;;;;;;;6.07;2.60;;;8.00;99.90;;;;;;4942405;28;20135;-77
2021/03/14 15:48:25;;;;;;;4.38;1.55;;;8.00;99.90;;;;;;4945361;29;20051;-79
2021/03/14 15:50:51;;;;;;;5.45;2.08;;;8.00;99.90;;;;;;4943021;29;20043;-77
2021/03/14 15:53:20;;;;;;;6.20;2.20;;;8.30;99.90;;;;;;4951950;28;20095;-80
2021/03/14 15:55:46;;;;;;;3.13;1.85;;;8.30;99.90;;;;;;4948176;29;20106;-80
2021/03/14 15:58:12;;;;;;;6.47;1.98;;;8.10;99.90;;;;;;4947177;29;20023;-77
2021/03/14 16:00:38;;;;;;;3.55;1.80;;;8.20;99.90;;;;;;4950612;28;20256;-81
2021/03/14 16:03:04;;;;;;;4.68;2.47;;;8.30;99.90;;;;;;4933563;28;20032;-80
2021/03/14 16:05:31;;;;;;;3.72;2.50;;;8.20;99.90;;;;;;4931163;28;20680;-78
2021/03/14 16:07:57;;;;;;;4.85;3.15;;;6.60;99.90;;;;;;4951761;28;20031;-77
2021/03/14 16:10:23;;;;;;;7.25;3.55;;;;;;;;;;4946980;28;20046;-80
2021/03/14 16:12:49;;;;;;;7.40;3.72;;;8.00;99.90;;;;;;4947344;28;20095;-78
2021/03/14 16:15:16;;;;;;;5.32;3.13;;;7.90;99.90;;;;;;4948230;28;20041;-78
2021/03/14 16:17:42;;;;;;;3.67;1.75;;;7.50;99.90;;;;;;4949371;28;20055;-78
2021/03/14 16:20:09;;;;;;;4.55;2.42;;;7.60;99.90;;;;;;4951740;28;20114;-78
2021/03/14 16:22:35;;;;;;;4.07;1.98;;;7.40;99.90;;;;;;4953167;29;20303;-77
2021/03/14 16:25:01;;;;;;;5.07;1.83;;;7.10;99.90;;;;;;4946447;28;20051;-77
2021/03/14 16:27:27;;;;;;;4.03;2.35;;;;;;;;;;4957707;28;20047;-77
2021/03/14 16:29:53;;;;;;;4.72;2.58;;;6.50;99.90;;;;;;4952779;29;20103;-76
2021/03/14 16:32:19;;;;;;;6.35;3.20;;;6.40;99.90;;;;;;4942980;28;20115;-77
2021/03/14 16:34:46;;;;;;;3.45;2.28;;;6.30;99.90;;;;;;4942603;28;20579;-76
2021/03/14 16:37:19;;;;;;;4.38;2.30;;;6.10;99.90;;;;;;4944884;28;20027;-76
2021/03/14 16:39:45;;;;;;;6.90;3.53;;;6.00;99.90;;;;;;4942270;28;20037;-76
2021/03/14 16:42:14;;;;;;;7.43;4.00;;;6.00;99.90;;;;;;4944161;28;20039;-76
2021/03/14 16:44:40;;;;;;;7.07;3.83;;;6.00;99.90;;;;;;4940987;29;20037;-78
2021/03/14 16:47:06;;;;;;;10.57;4.20;;;6.00;99.90;;;;;;4940174;29;20052;-77
2021/03/14 16:49:33;;;;;;;4.95;3.10;;;6.00;99.90;;;;;;4944470;29;20507;-77
2021/03/14 16:51:59;;;;;;;5.10;2.58;;;6.10;99.90;;;;;;4938641;29;20055;-79
2021/03/14 16:54:27;;;;;;;5.53;2.78;;;6.10;99.90;;;;;;4942318;29;20062;-78
2021/03/14 16:56:53;;;;;;;5.72;3.35;;;6.10;99.90;;;;;;4930975;29;20066;-78
2021/03/14 16:59:19;;;;;;;7.75;2.80;;;6.10;99.90;;;;;;4957583;29;20031;-81
2021/03/14 17:01:45;;;;;;;10.27;5.00;;;;;;;;;;4959540;28;20035;-82
2021/03/14 17:04:12;;;;;;;6.38;2.75;;;6.10;99.90;;;;;;4962247;28;21202;-84
2021/03/14 17:06:39;;;;;;;9.02;4.35;;;;;;;;;;4962793;28;20035;-78
2021/03/14 17:09:08;;;;;;;6.38;3.67;;;;;;;;;;4962046;28;20031;-81
2021/03/14 17:11:34;;;;;;;7.18;3.88;;;;;;;;;;4964561;29;20154;-76
2021/03/14 17:14:00;;;;;;;7.68;3.90;;;;;;;;;;4952615;29;20034;-76
2021/03/14 17:16:26;;;;;;;5.82;3.80;;;6.10;99.90;;;;;;4956214;28;20043;-80
2021/03/14 17:18:52;;;;;;;7.13;3.55;;;6.10;99.90;;;;;;4948306;29;20036;-75
2021/03/14 17:21:18;;;;;;;5.53;3.63;;;6.20;99.90;;;;;;4960883;29;20031;-74
2021/03/14 17:23:44;;;;;;;4.20;2.75;;;6.10;99.90;;;;;;4962124;29;20102;-76
2021/03/14 17:26:12;;;;;;;6.20;2.90;;;6.20;99.90;;;;;;4961843;29;20058;-77
2021/03/14 17:28:38;;;;;;;4.90;3.00;;;6.20;99.90;;;;;;4959325;29;20019;-74
2021/03/14 17:31:07;;;;;;;6.07;3.25;;;6.20;99.90;;;;;;4959928;28;20027;-75
2021/03/14 17:33:32;;;;;;;7.63;4.20;;;6.30;99.90;;;;;;4942706;29;20054;-80
2021/03/14 17:35:58;;;;;;;6.82;3.20;;;6.40;99.90;;;;;;4960739;28;20051;-79
2021/03/14 17:38:33;;;;;;;6.65;3.13;;;6.40;99.90;;;;;;4923204;29;20045;-85
2021/03/14 17:41:04;;;;;;;5.97;3.63;;;;;;;;;;4946989;29;20031;-80
2021/03/14 18:06:26;;;;;;;7.35;3.15;;;6.80;99.90;;;;;;5080103;28;20380;-77
2021/03/14 18:08:52;;;;;;;8.88;4.47;;;;;;;;;;5064109;28;20055;-78
2021/03/14 18:11:22;;;;;;;5.57;3.40;;;;;;;;;;5078538;28;20040;-77
2021/03/14 18:13:49;;;;;;;6.05;3.50;;;6.40;99.90;;;;;;5079582;28;20057;-79
2021/03/14 18:16:19;;;;;;;7.72;3.45;;;6.30;99.90;;;;;;5071453;28;20102;-79
2021/03/14 18:18:45;;;;;;;5.85;3.15;;;;;;;;;;5070971;28;20025;-77
2021/03/14 18:21:13;;;;;;;5.18;3.38;;;;;;;;;;5069610;28;20513;-77
2021/03/14 18:23:39;;;;;;;5.45;4.07;;;;;;;;;;5079896;28;20043;-80